Terminal Aerodrome Forecast
Issued by NWS Austin/San Antonio, TX

Home | Current Version | Previous Version | Text Only | Print | Product List | Glossary On
Versions: 1 2 3 4 5 6 7 8 9 10 11 12 13 14 15 16 17 18 19
000
FTUS44 KEWX 211700
TAFAUS
TAF
KAUS 211720Z 2118/2224 17007KT P6SM OVC018
     FM212200 18009KT P6SM BKN025
     FM220500 19005KT 6SM BR OVC012
     FM221200 19007KT 5SM BR BKN008
     FM221600 21010KT P6SM BKN015
     FM222100 19010KT P6SM SCT250=

USA.gov is the U.S. government's official web portal to all federal, state and local government web resources and services.